Airfield :







YOU CAN JOIN US ON...

 
LOGIN :

Register | Disclaimer

   EN    FR    IT 

 









Legend :    VFR   Marginal VFR   IFR   Intensive IFR   Very Intensive IFR
Visi :
Ceiling :
>= 8 km
>= 3000ft
5 to 8 km
1000 to 3000 ft
1500m to 5 km
500 to 1000 ft
800 to 1500m
200 to 500 ft
< 800m
< 200 ft
Symbols :   Thunderstorms  Fog  Heavy snow  Heavy precipitations  Wind > 20 kt






- Airport Elevation : 489 ft


KHUL - Houlton International

CURRENT METAR :
  • 231353Z AUTO 21005KT 10SM CLR M13/M21 A2976 RMK AO2 SLP093 T11331206

EXPIRED METARs :
  • 231253Z AUTO 23008KT 10SM OVC080 M14/M21 A2977 RMK AO2 SLP097 T11391211
  • 231153Z AUTO 19007KT 10SM SCT075 OVC090 M14/M21 A2978 RMK AO2 SLP099 60000 T11441211 11139 21217 56019

TAF KHUL
Valid from the 23 at 12:00 until the 24 at 12:00 UTC


231120Z 2312/2412 20005KT P6SM BKN070
FM231400 20006KT P6SM SCT060
FM232300 23006KT P6SM BKN070
FM240200 27005KT P6SM FEW090
KZBW FIR / North America



MET'MAP, your aeronautical weather chart ! - Copyright ORBIFLY December 2007 - Disclaimer

ORBIFLY MET'MAP TEAM :

Programming & Development : Alexandra Zaïnal
Concept & original design : Baudouin d'Aumeries
Assistance for programming : Marc-Olivier Méhu
Technical & hardware support : Manuel Goepfert

Contact : metmap@orbifly.com




SOURCES & CREDITS :

   NOAA